Airfield :
LOGIN :

Register | Disclaimer

   EN    FR    IT 

 










Legend :    VFR   Marginal VFR   IFR   Intensive IFR   Very Intensive IFR
Visi :
Ceiling :
>= 8 km
>= 3000ft
5 to 8 km
1000 to 3000 ft
1500m to 5 km
500 to 1000 ft
800 to 1500m
200 to 500 ft
< 800m
< 200 ft
Symbols :   Thunderstorms  Fog  Heavy snow  Heavy precipitations  Wind > 20 kt
SIGMETs :     Misc.  Thunderstorms  Icing  Turbulence  Mountain Waves  Volcanic Ashes






- Airport Elevation : 436 ft
- IATA code : BTS


LZIB - Bratislava

CURRENT METAR :
  • 071430Z 11006KT 070V150 CAVOK 33/14 Q1019 NOSIG

EXPIRED METARs :
  • 071400Z VRB06KT CAVOK 33/14 Q1019 NOSIG
  • 071330Z 09006KT 040V130 CAVOK 33/14 Q1020 NOSIG
  • 071300Z 06008KT 020V150 CAVOK 32/13 Q1020 NOSIG
  • 071230Z 36007KT 300V050 CAVOK 32/14 Q1020 NOSIG
  • 071200Z 01007KT 300V060 CAVOK 31/14 Q1020 NOSIG

TAF TAF LZIB
Valid from the 07 at 12:00 until the 08 at 12:00 UTC


071100Z 0712/0812 05008KT CAVOK
TEMPO 0713/0716 02012KT
BECMG 0718/0720 34004KT



MET'MAP, your aeronautical weather chart ! - Copyright ORBIFLY December 2007 - Disclaimer

ORBIFLY MET'MAP TEAM :

Programming & Development : Alexandra Zaïnal
Concept & original design : Baudouin d'Aumeries
Assistance for programming : Marc-Olivier Méhu
Technical & hardware support : Manuel Goepfert

Contact : metmap@orbifly.com




SOURCES & CREDITS :

   NOAA